Time;durP1;ratioP1;P1;durP2;ratioP2;P2;SDS_P1;SDS_P2;PMS_P1;PMS_P2;Temp;Humidity;BMP_temperature;BMP_pressure;BME280_temperature;BME280_humidity;BME280_pressure;Samples;Min_cycle;Max_cycle;Signal;HPM_P1;HPM_P2
2022/11/10 00:00:56;;;;;;;6.32;1.20;;;;;;;12.23;94.10;99842.28;5008375;28;20053;-44
2022/11/10 00:03:29;;;;;;;4.15;1.27;;;;;;;12.25;94.07;99852.97;5011455;28;20046;-47
2022/11/10 00:05:56;;;;;;;4.93;1.38;;;;;;;12.25;93.85;99856.56;5010851;28;20034;-44
2022/11/10 00:08:23;;;;;;;4.22;1.45;;;;;;;12.27;93.71;99875.59;5011809;28;20046;-45
2022/11/10 00:10:56;;;;;;;8.30;1.42;;;;;;;12.28;93.45;99866.09;5011242;28;20053;-49
2022/11/10 00:13:25;;;;;;;4.05;1.40;;;;;;;12.32;93.24;99880.81;5008528;28;20058;-52
2022/11/10 00:18:39;;;;;;;6.93;1.40;;;;;;;12.29;93.02;99865.72;5011176;28;20053;-44
2022/11/10 00:21:08;;;;;;;6.18;1.50;;;;;;;12.28;92.67;99875.25;5010955;28;20038;-50
2022/11/10 00:23:35;;;;;;;9.57;1.77;;;;;;;12.27;92.56;99864.50;5005633;28;20042;-44
2022/11/10 00:26:02;;;;;;;5.32;1.75;;;;;;;12.27;92.57;99873.63;5004819;28;20038;-46
2022/11/10 00:28:31;;;;;;;9.52;2.17;;;;;;;12.28;91.88;99871.66;5005783;28;20037;-47
2022/11/10 00:30:57;;;;;;;7.63;1.73;;;;;;;12.28;91.78;99875.25;5006885;28;20054;-44
2022/11/10 00:33:24;;;;;;;8.50;1.80;;;;;;;12.27;91.60;99881.97;5011596;28;20072;-44
2022/11/10 00:35:51;;;;;;;6.63;1.75;;;;;;;12.25;91.21;99884.31;5009624;28;20042;-43
2022/11/10 00:38:17;;;;;;;7.20;1.38;;;;;;;12.22;91.15;99890.63;4997430;28;20137;-47
2022/11/10 00:40:44;;;;;;;11.25;2.30;;;;;;;12.23;90.95;99892.22;5011267;28;20051;-45
2022/11/10 00:43:11;;;;;;;8.07;1.65;;;;;;;12.22;90.92;99910.03;5011059;28;20420;-45
2022/11/10 00:45:41;;;;;;;7.53;1.73;;;;;;;12.20;90.53;99904.06;5010734;28;20542;-46
2022/11/10 00:48:08;;;;;;;5.63;1.17;;;;;;;12.22;90.43;99901.72;5011502;28;20464;-45
2022/11/10 00:50:35;;;;;;;11.10;1.77;;;;;;;12.23;90.37;99913.63;5011120;28;20129;-43
2022/11/10 00:53:02;;;;;;;6.47;1.60;;;;;;;12.23;90.36;99919.97;5010948;28;20073;-44
2022/11/10 00:55:28;;;;;;;13.50;2.38;;;;;;;12.26;90.04;99908.09;5010892;28;20050;-47
2022/11/10 00:57:55;;;;;;;10.85;1.50;;;;;;;12.31;89.72;99916.09;5009729;28;20120;-44
2022/11/10 01:00:22;;;;;;;7.03;2.05;;;;;;;12.34;89.76;99920.13;5007467;28;20145;-47
2022/11/10 01:02:48;;;;;;;7.97;1.70;;;;;;;12.34;89.67;99920.88;5005715;28;20054;-45
2022/11/10 01:05:15;;;;;;;6.75;1.15;;;;;;;12.35;89.45;99911.41;5010337;28;20402;-45
2022/11/10 01:07:42;;;;;;;13.90;1.98;;;;;;;12.38;89.45;99909.84;5010725;28;20053;-47
2022/11/10 01:10:08;;;;;;;9.45;1.50;;;;;;;12.39;89.28;99915.00;5010042;28;20049;-45
2022/11/10 01:12:35;;;;;;;8.07;1.92;;;;;;;12.42;89.02;99921.78;5009942;28;20516;-46
2022/11/10 01:15:03;;;;;;;10.98;2.97;;;;;;;12.45;88.85;99921.03;5010171;28;20342;-44
2022/11/10 01:17:30;;;;;;;5.35;1.17;;;;;;;12.46;88.68;99922.63;5010267;28;20041;-44
2022/11/10 01:19:57;;;;;;;9.40;2.20;;;;;;;12.47;88.43;99935.34;5010370;28;20058;-47
2022/11/10 01:22:23;;;;;;;9.65;2.33;;;;;;;12.50;88.37;99924.28;5009375;28;20042;-46
2022/11/10 01:24:50;;;;;;;6.85;1.52;;;;;;;12.52;87.91;99932.25;5009380;28;20046;-46
2022/11/10 01:27:17;;;;;;;8.30;2.13;;;;;;;12.53;87.99;99923.53;5009597;28;20061;-46
2022/11/10 01:29:44;;;;;;;10.32;1.80;;;;;;;12.53;87.81;99901.31;5009708;28;20050;-44
2022/11/10 01:32:11;;;;;;;8.00;1.67;;;;;;;12.51;87.84;99909.22;5008748;28;20045;-49
2022/11/10 01:34:37;;;;;;;10.75;1.98;;;;;;;12.49;87.96;99916.34;5008060;28;20104;-49
2022/11/10 01:37:04;;;;;;;11.95;1.85;;;;;;;12.44;87.70;99911.13;5005990;28;20057;-45
2022/11/10 01:39:31;;;;;;;10.30;2.63;;;;;;;12.41;87.72;99917.41;5009714;28;20049;-43
2022/11/10 01:41:57;;;;;;;7.60;1.80;;;;;;;12.37;87.59;99909.03;5008024;28;20519;-45
2022/11/10 01:44:25;;;;;;;15.70;2.85;;;;;;;12.32;87.80;99906.59;5004884;28;20049;-45
2022/11/10 01:46:51;;;;;;;6.53;2.03;;;;;;;12.28;87.88;99916.88;5004568;28;20054;-50
2022/11/10 01:49:24;;;;;;;7.88;2.17;;;;;;;12.25;87.83;99912.06;5005808;28;20049;-48
2022/11/10 01:52:00;;;;;;;9.25;1.80;;;;;;;12.23;88.10;99911.66;5008691;28;20038;-44
2022/11/10 01:54:32;;;;;;;12.10;2.08;;;;;;;12.21;88.25;99922.31;5009591;28;20049;-46
2022/11/10 01:57:05;;;;;;;10.10;1.70;;;;;;;12.19;88.13;99930.22;5002097;28;20065;-44
2022/11/10 01:59:38;;;;;;;10.27;1.70;;;;;;;12.20;88.19;99926.28;5004902;28;20037;-43
2022/11/10 02:02:20;;;;;;;11.88;3.97;;;;;;;12.19;88.27;99919.13;5002707;28;20043;-44
2022/11/10 02:04:50;;;;;;;7.03;1.80;;;;;;;12.17;88.17;99924.25;5005647;28;20052;-44
2022/11/10 02:07:19;;;;;;;14.80;3.97;;;;;;;12.15;88.41;99941.25;5023692;28;20464;-44
2022/11/10 02:09:45;;;;;;;9.02;2.67;;;;;;;12.15;88.51;99923.81;5007462;28;20045;-46
2022/11/10 02:12:13;;;;;;;9.98;1.70;;;;;;;12.18;88.52;99931.38;5006142;28;20054;-45
2022/11/10 02:14:41;;;;;;;6.90;2.30;;;;;;;12.20;88.31;99938.16;5006368;28;20061;-44
2022/11/10 02:17:08;;;;;;;9.40;2.30;;;;;;;12.19;88.50;99935.75;5005711;28;20121;-48
2022/11/10 02:19:40;;;;;;;6.82;2.08;;;;;;;12.19;88.41;99930.22;5020860;28;20053;-46
2022/11/10 02:22:07;;;;;;;7.32;1.55;;;;;;;12.20;88.67;99948.47;5007849;28;20046;-49
2022/11/10 02:24:34;;;;;;;7.70;1.95;;;;;;;12.21;88.64;99945.31;5007742;28;20038;-44
2022/11/10 02:27:01;;;;;;;13.65;2.28;;;;;;;12.21;88.56;99933.41;5005805;28;20079;-47
2022/11/10 02:29:28;;;;;;;9.18;2.20;;;;;;;12.18;88.82;99912.75;5004128;28;20104;-49
2022/11/10 02:31:55;;;;;;;13.73;1.63;;;;;;;12.19;88.80;99924.66;5004088;28;20065;-45
2022/11/10 02:34:21;;;;;;;19.25;3.50;;;;;;;12.19;89.02;99913.56;5007497;28;20437;-43
2022/11/10 02:36:48;;;;;;;16.90;2.17;;;;;;;12.21;89.04;99916.75;5005036;28;20061;-46
2022/11/10 02:39:15;;;;;;;7.78;1.60;;;;;;;12.24;88.90;99921.56;5005596;28;20184;-46
2022/11/10 02:41:41;;;;;;;11.85;1.58;;;;;;;12.26;89.11;99919.19;4995622;28;20045;-47
2022/11/10 02:44:08;;;;;;;13.63;3.53;;;;;;;12.30;89.15;99914.50;5006609;28;20050;-45
2022/11/10 02:46:36;;;;;;;10.23;2.10;;;;;;;12.33;88.94;99919.31;5006541;28;20068;-48
2022/11/10 02:49:03;;;;;;;12.15;1.88;;;;;;;12.37;88.89;99911.81;5007453;28;20054;-46
2022/11/10 02:51:30;;;;;;;9.98;1.85;;;;;;;12.41;89.06;99937.66;5007111;28;20049;-45
2022/11/10 02:53:57;;;;;;;10.38;2.03;;;;;;;12.44;88.90;99936.91;5011435;28;20034;-44
2022/11/10 02:56:23;;;;;;;11.70;2.33;;;;;;;12.48;88.86;99932.19;5005202;28;20052;-45
2022/11/10 02:58:50;;;;;;;14.75;1.95;;;;;;;12.50;88.55;99938.16;5005652;28;20049;-44
2022/11/10 03:01:17;;;;;;;11.48;1.77;;;;;;;12.51;88.58;99931.44;5048025;23;20049;-45
2022/11/10 03:03:43;;;;;;;10.70;2.20;;;;;;;12.51;88.75;99939.75;5011541;28;20046;-45
2022/11/10 03:06:10;;;;;;;12.18;3.65;;;;;;;12.52;88.88;99927.47;5018995;28;20153;-45
2022/11/10 03:08:38;;;;;;;20.10;4.63;;;;;;;12.55;88.74;99932.25;5012590;28;20038;-44
2022/11/10 03:11:05;;;;;;;9.10;1.80;;;;;;;12.59;88.77;99932.31;5012199;28;20046;-44
2022/11/10 03:13:31;;;;;;;10.73;2.92;;;;;;;12.60;88.53;99923.59;5009004;28;20049;-46
2022/11/10 03:16:18;;;;;;;9.15;1.75;;;;;;;12.64;88.49;99926.41;5010732;28;20735;-46
2022/11/10 03:18:45;;;;;;;10.48;2.25;;;;;;;12.63;88.47;99922.84;5012649;28;20042;-48
2022/11/10 03:21:12;;;;;;;18.80;2.03;;;;;;;12.61;88.26;99921.63;5012894;28;20046;-46
2022/11/10 03:23:38;;;;;;;5.93;1.75;;;;;;;12.61;88.69;99927.97;5020793;28;20049;-44
2022/11/10 03:26:06;;;;;;;10.15;2.42;;;;;;;12.61;88.57;99930.75;4999979;28;20049;-47
2022/11/10 03:28:33;;;;;;;7.75;1.85;;;;;;;12.62;88.31;99924.03;5008064;28;20053;-43
2022/11/10 03:31:00;;;;;;;9.35;2.15;;;;;;;12.63;88.43;99922.84;5001716;28;20062;-43
2022/11/10 03:33:27;;;;;;;15.57;3.13;;;;;;;12.65;88.37;99926.06;5010789;28;20064;-46
2022/11/10 03:35:54;;;;;;;12.57;2.17;;;;;;;12.67;88.46;99928.44;5009833;28;20500;-44
2022/11/10 03:38:20;;;;;;;5.63;2.17;;;;;;;12.70;88.31;99922.13;5014567;28;20815;-45
2022/11/10 03:40:49;;;;;;;10.85;2.53;;;;;;;12.68;88.22;99922.50;5016546;28;20050;-44
2022/11/10 03:43:36;;;;;;;11.25;1.92;;;;;;;12.69;88.26;99929.66;5011655;28;20111;-44
2022/11/10 03:46:03;;;;;;;11.90;1.35;;;;;;;12.72;88.14;99917.81;5010268;28;20057;-44
2022/11/10 03:48:29;;;;;;;9.93;1.80;;;;;;;12.73;88.26;99913.81;5011021;28;20399;-45
2022/11/10 03:50:56;;;;;;;12.98;2.17;;;;;;;12.75;88.24;99913.47;5010594;28;20054;-44
2022/11/10 03:53:23;;;;;;;11.50;1.45;;;;;;;12.74;88.09;99901.56;5010281;28;20046;-45
2022/11/10 03:55:50;;;;;;;10.98;1.73;;;;;;;12.73;88.32;99910.28;5008429;28;20042;-47
2022/11/10 03:58:16;;;;;;;10.82;1.73;;;;;;;12.70;88.26;99914.63;5010886;28;20042;-44
2022/11/10 04:00:43;;;;;;;5.38;1.30;;;;;;;12.67;88.49;99923.69;5005815;28;20051;-48
2022/11/10 04:03:10;;;;;;;6.55;1.63;;;;;;;12.65;88.77;99919.69;5009285;28;20045;-44
2022/11/10 04:09:00;;;;;;;5.55;1.00;;;;;;;12.57;89.15;99932.72;4968508;28;20054;-45
2022/11/10 04:17:00;;;;;;;3.42;0.90;;;;;;;12.48;89.92;99942.47;5009127;28;20490;-44
2022/11/10 04:19:27;;;;;;;3.38;0.70;;;;;;;12.49;89.96;99927.44;5008185;28;20054;-50
2022/11/10 04:21:54;;;;;;;6.05;1.08;;;;;;;12.50;90.33;99938.16;5011536;28;20080;-44
2022/11/10 04:24:20;;;;;;;6.32;1.05;;;;;;;12.51;90.36;99930.63;5007249;28;20042;-46
2022/11/10 04:26:48;;;;;;;3.88;0.65;;;;;;;12.51;90.53;99937.00;5005955;28;20046;-44
2022/11/10 04:29:17;;;;;;;5.97;0.70;;;;;;;12.55;90.49;99959.25;5009845;28;20050;-44
2022/11/10 04:31:44;;;;;;;12.82;2.50;;;;;;;12.59;90.48;99935.91;5009815;28;20042;-44
2022/11/10 04:34:13;;;;;;;3.85;0.70;;;;;;;12.61;90.50;99941.06;5009250;28;20141;-47
2022/11/10 04:36:42;;;;;;;3.13;1.02;;;;;;;12.64;90.45;99918.91;5009507;28;20049;-45
2022/11/10 04:39:09;;;;;;;4.38;1.40;;;;;;;12.64;90.40;99926.41;5010176;28;20056;-45
2022/11/10 04:41:38;;;;;;;6.10;1.23;;;;;;;12.62;90.58;99934.34;5009636;28;20145;-45
2022/11/10 04:44:04;;;;;;;10.48;2.85;;;;;;;12.62;90.61;99937.94;5010369;28;20104;-44
2022/11/10 04:46:37;;;;;;;4.93;0.90;;;;;;;12.61;90.43;99938.28;5009189;28;20052;-49
2022/11/10 04:49:05;;;;;;;5.25;0.77;;;;;;;12.60;90.56;99936.69;5009589;28;20050;-45
2022/11/10 04:51:34;;;;;;;4.55;0.70;;;;;;;12.61;90.81;99936.31;5010602;28;20048;-46
2022/11/10 04:54:02;;;;;;;8.15;1.25;;;;;;;12.64;90.92;99930.00;5008506;28;20038;-46
2022/11/10 04:56:29;;;;;;;4.13;0.82;;;;;;;12.71;90.87;99938.41;5010039;28;20056;-46
2022/11/10 04:58:56;;;;;;;3.22;0.90;;;;;;;12.72;90.58;99948.34;5008999;28;20049;-49
2022/11/10 05:01:25;;;;;;;2.90;0.90;;;;;;;12.75;90.60;99939.28;5006193;28;20049;-46
2022/11/10 05:03:53;;;;;;;6.43;0.95;;;;;;;12.78;90.62;99934.94;5011352;28;20045;-46
2022/11/10 05:06:20;;;;;;;7.05;0.70;;;;;;;12.79;90.79;99917.06;5025882;28;20065;-45
2022/11/10 05:08:48;;;;;;;1.83;0.80;;;;;;;12.80;90.88;99927.81;5008423;28;20041;-45
2022/11/10 05:11:15;;;;;;;1.83;0.45;;;;;;;12.85;90.92;99946.13;5008696;28;20046;-44
2022/11/10 05:13:43;;;;;;;3.10;0.77;;;;;;;12.90;90.92;99931.06;5010377;28;20038;-45
2022/11/10 05:16:10;;;;;;;1.27;0.40;;;;;;;12.93;90.80;99952.53;5010005;28;20059;-46
2022/11/10 05:18:37;;;;;;;0.70;0.20;;;;;;;12.94;91.05;99943.03;5016515;28;20215;-44
2022/11/10 05:21:04;;;;;;;4.55;0.52;;;;;;;12.98;91.12;99927.19;5007042;28;20451;-45
2022/11/10 05:23:37;;;;;;;3.38;0.47;;;;;;;12.98;90.92;99943.88;5009766;28;20053;-45
2022/11/10 05:26:10;;;;;;;2.75;0.30;;;;;;;12.99;91.10;99939.91;5005090;28;20112;-44
2022/11/10 05:28:38;;;;;;;1.08;0.40;;;;;;;12.99;91.10;99940.72;5009635;28;20053;-46
2022/11/10 05:31:05;;;;;;;2.35;0.28;;;;;;;13.00;91.10;99944.31;5008098;28;20439;-45
2022/11/10 05:33:32;;;;;;;1.52;0.40;;;;;;;13.00;91.28;99938.75;5009257;28;20046;-46
2022/11/10 05:36:00;;;;;;;2.33;0.20;;;;;;;12.99;91.34;99939.91;5008980;28;20077;-46
2022/11/10 05:38:27;;;;;;;1.75;0.45;;;;;;;12.97;91.54;99936.72;5009063;28;20038;-45
2022/11/10 05:40:54;;;;;;;1.58;0.30;;;;;;;12.98;91.71;99946.66;5008939;28;20046;-45
2022/11/10 05:43:20;;;;;;;1.10;0.22;;;;;;;13.00;91.66;99941.53;5008369;28;20396;-45
2022/11/10 05:45:48;;;;;;;1.45;0.73;;;;;;;12.99;91.83;99946.28;5008650;28;20498;-44
2022/11/10 05:48:15;;;;;;;1.75;0.57;;;;;;;12.99;91.80;99928.81;5008712;28;20076;-45
2022/11/10 05:50:42;;;;;;;1.02;0.25;;;;;;;12.98;91.86;99936.34;5008456;28;20050;-44
2022/11/10 05:53:09;;;;;;;2.33;0.30;;;;;;;12.96;92.08;99935.13;5008172;28;20050;-48
2022/11/10 05:55:36;;;;;;;3.67;0.47;;;;;;;12.95;92.34;99934.31;5012908;28;20079;-47
2022/11/10 05:58:03;;;;;;;1.40;0.50;;;;;;;12.98;92.42;99921.63;5008059;28;20495;-44
2022/11/10 06:00:31;;;;;;;8.15;1.05;;;;;;;12.98;92.13;99907.75;5007124;28;20041;-47
2022/11/10 06:03:04;;;;;;;3.10;0.47;;;;;;;12.97;92.17;99911.72;5008837;28;20065;-45
2022/11/10 06:05:33;;;;;;;1.13;0.35;;;;;;;12.98;92.39;99922.44;5003761;28;20049;-44
2022/11/10 06:08:02;;;;;;;0.95;0.43;;;;;;;13.03;92.21;99924.06;5008212;28;20599;-44
2022/11/10 06:10:29;;;;;;;1.65;0.40;;;;;;;13.03;92.06;99912.94;5007558;28;20041;-45
2022/11/10 06:12:58;;;;;;;1.73;0.52;;;;;;;13.04;91.88;99925.69;5006600;28;20057;-44
2022/11/10 06:15:25;;;;;;;3.95;0.82;;;;;;;13.04;92.20;99920.13;5006368;28;20046;-54
2022/11/10 06:17:53;;;;;;;2.58;0.40;;;;;;;13.03;92.08;99908.19;5006143;28;20646;-44
2022/11/10 06:20:19;;;;;;;0.73;0.25;;;;;;;13.01;92.02;99907.78;5008490;28;20045;-47
2022/11/10 06:22:58;;;;;;;3.05;0.40;;;;;;;13.01;92.29;99909.75;5006437;28;20049;-44
2022/11/10 06:25:25;;;;;;;1.77;0.60;;;;;;;12.99;92.12;99906.56;5000956;28;20048;-44
2022/11/10 06:27:52;;;;;;;2.70;0.60;;;;;;;12.98;92.35;99904.97;5007164;28;20140;-44
2022/11/10 06:30:19;;;;;;;1.75;0.60;;;;;;;12.98;92.22;99905.78;5007258;28;20507;-47
2022/11/10 06:32:46;;;;;;;1.67;0.30;;;;;;;12.99;92.30;99914.91;5006572;28;20060;-48
2022/11/10 06:35:14;;;;;;;4.10;0.32;;;;;;;12.99;92.07;99915.72;5005663;28;20058;-45
2022/11/10 06:37:41;;;;;;;1.52;0.55;;;;;;;13.01;92.24;99918.91;5007157;28;20175;-46
2022/11/10 06:40:11;;;;;;;6.57;0.45;;;;;;;13.03;91.75;99912.94;5008937;28;20534;-44
2022/11/10 06:42:38;;;;;;;0.93;0.65;;;;;;;13.03;91.87;99919.31;5008608;28;20038;-45
2022/11/10 06:45:05;;;;;;;2.60;0.50;;;;;;;13.03;91.74;99915.72;5007021;28;20092;-47
2022/11/10 06:47:32;;;;;;;5.07;0.75;;;;;;;13.03;91.58;99907.41;5006346;28;20093;-45
2022/11/10 06:50:00;;;;;;;2.35;0.32;;;;;;;13.01;91.62;99915.31;5022431;28;20136;-46
2022/11/10 06:52:27;;;;;;;5.65;2.00;;;;;;;13.02;91.31;99930.81;5007350;28;20133;-44
2022/11/10 06:54:53;;;;;;;3.60;0.55;;;;;;;13.02;91.34;99920.50;5006355;28;20061;-44
2022/11/10 06:57:20;;;;;;;3.72;0.68;;;;;;;13.04;90.97;99925.69;5007330;28;20042;-45
2022/11/10 06:59:48;;;;;;;4.35;0.90;;;;;;;13.05;90.91;99905.06;5006808;28;20466;-47
2022/11/10 07:02:15;;;;;;;2.83;0.52;;;;;;;13.04;91.06;99922.91;5004017;28;20430;-46
2022/11/10 07:04:41;;;;;;;2.92;0.50;;;;;;;13.06;90.71;99923.31;5006042;28;20104;-45
2022/11/10 07:07:10;;;;;;;3.38;0.50;;;;;;;13.08;90.63;99930.13;5009390;28;21053;-44
2022/11/10 07:09:37;;;;;;;4.90;0.50;;;;;;;13.09;90.71;99945.63;5005531;28;20042;-45
2022/11/10 07:12:04;;;;;;;5.05;0.73;;;;;;;13.12;90.82;99955.16;5006377;28;20042;-51
2022/11/10 07:14:31;;;;;;;3.60;0.60;;;;;;;13.14;90.78;99975.03;5006253;28;20046;-44
2022/11/10 07:16:57;;;;;;;4.80;1.17;;;;;;;13.16;90.62;99972.66;5005607;28;20060;-44
2022/11/10 07:19:24;;;;;;;2.55;0.50;;;;;;;13.18;90.77;99948.09;5006935;28;20049;-49
2022/11/10 07:21:51;;;;;;;3.33;0.60;;;;;;;13.18;90.90;99939.75;5007360;28;20038;-49
2022/11/10 07:24:17;;;;;;;1.75;0.40;;;;;;;13.19;90.86;99949.69;5005732;28;20085;-45
2022/11/10 07:26:44;;;;;;;3.25;0.52;;;;;;;13.17;90.96;99955.63;5003113;28;20046;-44
2022/11/10 07:29:10;;;;;;;4.32;0.40;;;;;;;13.15;91.00;99959.97;5006579;28;20107;-51
2022/11/10 07:31:37;;;;;;;1.05;0.30;;;;;;;13.15;91.18;99987.75;5001976;28;20713;-45
2022/11/10 07:34:04;;;;;;;2.90;0.40;;;;;;;13.15;91.29;99987.75;5001946;28;20049;-45
2022/11/10 07:36:30;;;;;;;7.28;0.68;;;;;;;13.16;91.44;99997.69;5008637;28;20384;-44
2022/11/10 07:38:57;;;;;;;3.22;0.85;;;;;;;13.17;91.42;99979.84;5010147;28;20054;-44
2022/11/10 07:41:24;;;;;;;2.17;0.80;;;;;;;13.16;91.41;99967.91;5012123;28;20084;-47
2022/11/10 07:43:51;;;;;;;3.95;0.70;;;;;;;13.18;91.38;99957.25;5005198;28;20052;-45
2022/11/10 07:46:18;;;;;;;2.83;0.45;;;;;;;13.22;91.32;99974.75;5004332;28;20085;-44
2022/11/10 07:48:45;;;;;;;2.75;0.30;;;;;;;13.23;91.31;99956.88;5012425;28;20393;-46
2022/11/10 07:51:12;;;;;;;2.83;0.47;;;;;;;13.25;91.21;99959.28;5012448;28;20140;-44
2022/11/10 07:53:40;;;;;;;4.93;0.80;;;;;;;13.26;91.07;99972.00;5016655;28;20060;-47
2022/11/10 07:56:07;;;;;;;9.02;1.08;;;;;;;13.24;91.17;99979.91;5031202;28;20045;-48
2022/11/10 07:58:34;;;;;;;7.93;0.80;;;;;;;13.23;91.15;99975.53;5032000;28;20049;-44
2022/11/10 08:01:01;;;;;;;3.42;0.65;;;;;;;13.24;91.20;99980.72;5011209;28;20136;-46
2022/11/10 08:03:27;;;;;;;3.17;0.60;;;;;;;13.27;91.27;99973.59;5009690;28;20620;-44
2022/11/10 08:05:55;;;;;;;5.25;0.45;;;;;;;13.28;91.10;99991.88;4996495;28;20532;-47
2022/11/10 08:08:21;;;;;;;3.50;0.50;;;;;;;13.29;91.08;99985.16;4997562;28;20034;-44
2022/11/10 08:10:48;;;;;;;0.68;0.30;;;;;;;13.32;91.17;99992.69;5000071;28;20038;-44
2022/11/10 08:13:15;;;;;;;2.88;0.55;;;;;;;13.32;91.05;99987.13;5011676;28;20061;-52
2022/11/10 08:15:42;;;;;;;1.30;0.20;;;;;;;13.34;90.99;100004.25;5010675;28;20045;-45
2022/11/10 08:18:19;;;;;;;11.02;1.23;;;;;;;13.38;91.05;99974.50;5005061;28;20133;-48
2022/11/10 08:20:47;;;;;;;3.08;0.98;;;;;;;13.39;90.68;99976.09;4995788;28;20373;-45
2022/11/10 08:23:14;;;;;;;2.60;0.70;;;;;;;13.41;90.75;99991.22;5011891;28;20056;-44
2022/11/10 08:25:41;;;;;;;1.67;0.60;;;;;;;13.44;90.61;99984.09;5010351;28;20132;-45
2022/11/10 08:28:14;;;;;;;1.35;0.60;;;;;;;13.49;90.58;99982.94;5008627;28;20411;-47
2022/11/10 08:30:43;;;;;;;6.53;0.90;;;;;;;13.52;90.40;99982.19;5008941;28;20045;-43
2022/11/10 08:33:11;;;;;;;3.03;0.68;;;;;;;13.54;90.18;99994.50;5007732;28;20085;-46
2022/11/10 08:35:41;;;;;;;3.92;0.65;;;;;;;13.58;90.10;100002.91;5009112;28;20057;-45
2022/11/10 08:38:11;;;;;;;5.50;0.70;;;;;;;13.57;90.21;99993.75;4999561;28;20046;-47
2022/11/10 08:40:38;;;;;;;3.20;0.50;;;;;;;13.58;89.96;100006.44;5009072;28;20046;-45
2022/11/10 08:43:08;;;;;;;3.65;0.80;;;;;;;13.60;90.09;100000.53;5010161;28;20507;-45
2022/11/10 08:45:37;;;;;;;4.40;0.80;;;;;;;13.62;89.96;100012.06;5006907;28;20484;-45
2022/11/10 08:48:07;;;;;;;6.28;1.02;;;;;;;13.64;90.05;100012.47;4991746;28;20443;-44
2022/11/10 08:50:33;;;;;;;4.55;0.75;;;;;;;13.66;90.01;100015.69;4990926;28;20101;-44
2022/11/10 08:53:06;;;;;;;1.80;0.60;;;;;;;13.69;89.98;100012.91;4991172;28;20485;-44
2022/11/10 08:55:33;;;;;;;5.65;0.80;;;;;;;13.73;89.68;99985.94;5004732;28;20049;-44
2022/11/10 08:58:02;;;;;;;3.42;1.00;;;;;;;13.77;89.70;99999.88;5010908;28;20046;-52
2022/11/10 09:00:30;;;;;;;1.00;0.43;;;;;;;13.81;89.52;100011.84;5007883;28;20046;-47
2022/11/10 09:03:24;;;;;;;9.00;0.63;;;;;;;13.84;89.47;99997.16;5024608;28;20054;-46
2022/11/10 09:05:52;;;;;;;2.60;0.80;;;;;;;13.85;89.63;100021.81;5019000;28;20136;-47
2022/11/10 09:08:24;;;;;;;3.92;0.77;;;;;;;13.89;89.46;100005.97;5009500;28;20076;-51
2022/11/10 09:10:51;;;;;;;2.17;0.35;;;;;;;13.90;89.32;100004.75;5010287;28;20141;-46
2022/11/10 09:13:20;;;;;;;0.60;0.30;;;;;;;13.94;89.21;100021.50;5009608;28;20046;-46
2022/11/10 09:15:55;;;;;;;1.77;0.40;;;;;;;13.96;89.42;100005.19;5008659;28;20080;-44
2022/11/10 09:18:22;;;;;;;4.07;0.60;;;;;;;13.97;89.14;100017.94;5011005;28;20108;-45
2022/11/10 09:20:48;;;;;;;2.72;0.38;;;;;;;13.98;89.18;100003.63;5011539;28;20408;-46
2022/11/10 09:23:17;;;;;;;4.63;0.90;;;;;;;14.01;89.15;100014.00;5010186;28;20050;-45
2022/11/10 09:25:49;;;;;;;3.35;0.57;;;;;;;14.04;89.26;100006.84;5008116;28;20496;-45
2022/11/10 09:28:17;;;;;;;5.72;0.55;;;;;;;14.05;89.20;100005.69;5010213;28;20050;-45
2022/11/10 09:30:49;;;;;;;6.75;0.70;;;;;;;14.08;89.03;100012.47;5010207;28;20046;-51
2022/11/10 09:33:18;;;;;;;2.83;0.45;;;;;;;14.09;89.05;100016.81;5010072;28;20486;-43
2022/11/10 09:35:45;;;;;;;1.65;0.50;;;;;;;14.11;88.71;100022.81;5009316;28;20081;-50
2022/11/10 09:38:12;;;;;;;0.73;0.60;;;;;;;14.15;88.93;100029.19;5008501;28;20052;-45
2022/11/10 09:40:57;;;;;;;2.22;0.50;;;;;;;14.14;88.77;100022.84;5009619;28;20042;-48
2022/11/10 09:43:32;;;;;;;4.65;1.75;;;;;;;14.11;88.85;100014.47;4997661;28;20748;-47
2022/11/10 09:46:04;;;;;;;3.40;0.32;;;;;;;14.09;89.04;100044.66;5008577;28;20041;-46
2022/11/10 09:48:37;;;;;;;2.08;0.63;;;;;;;14.07;89.38;100039.50;4997633;28;20069;-45
2022/11/10 09:51:22;;;;;;;3.83;0.50;;;;;;;14.06;89.58;100042.66;5009664;28;20041;-44
2022/11/10 09:53:55;;;;;;;4.85;1.35;;;;;;;14.04;89.63;100052.19;5014890;28;20038;-47
2022/11/10 09:56:29;;;;;;;0.82;0.20;;;;;;;14.04;89.95;100059.72;5008930;28;20042;-43
2022/11/10 09:58:55;;;;;;;3.03;1.00;;;;;;;14.05;90.00;100064.13;5009706;28;20060;-44
2022/11/10 10:01:34;;;;;;;1.63;0.30;;;;;;;14.08;89.96;100068.13;5008713;28;20050;-42
2022/11/10 10:04:09;;;;;;;0.52;0.22;;;;;;;14.08;90.09;100057.00;5001804;28;20662;-44
2022/11/10 10:07:02;;;;;;;2.65;1.30;;;;;;;14.10;89.93;100069.34;5006017;28;20046;-43
2022/11/10 10:09:58;;;;;;;1.65;0.30;;;;;;;14.13;89.74;100076.13;5001770;28;20053;-43
2022/11/10 10:12:31;;;;;;;1.48;0.30;;;;;;;14.15;89.20;100068.16;4998293;28;20045;-46
2022/11/10 10:15:20;;;;;;;3.03;0.60;;;;;;;14.17;88.82;100061.03;5009170;28;20053;-46
2022/11/10 10:18:01;;;;;;;2.60;0.60;;;;;;;14.23;88.41;100069.81;5009557;28;20104;-46
2022/11/10 10:20:41;;;;;;;6.22;0.90;;;;;;;14.26;87.71;100069.88;5008651;28;20132;-47
2022/11/10 10:23:20;;;;;;;3.33;0.70;;;;;;;14.29;87.35;100080.25;5008807;28;20389;-44
2022/11/10 10:26:12;;;;;;;2.42;0.60;;;;;;;14.30;86.88;100084.59;5009117;28;20152;-43
2022/11/10 10:28:45;;;;;;;4.35;1.20;;;;;;;14.31;86.85;100083.47;5009226;28;20073;-43
2022/11/10 10:31:18;;;;;;;1.90;1.05;;;;;;;14.32;86.82;100082.25;5008584;28;20050;-46
2022/11/10 10:33:45;;;;;;;;;;;;;;;14.32;86.65;100084.25;5009431;28;20050;-44
2022/11/10 10:36:17;;;;;;;5.28;1.08;;;;;;;14.32;86.90;100078.69;5009089;28;19952;-44
2022/11/10 10:38:48;;;;;;;6.70;1.98;;;;;;;14.34;86.74;100065.19;5009135;28;20054;-43
2022/11/10 10:41:26;;;;;;;6.60;1.23;;;;;;;14.39;86.63;100089.88;5008658;28;20041;-44
2022/11/10 10:43:58;;;;;;;3.65;1.05;;;;;;;14.40;86.41;100097.06;5016294;28;20068;-43
2022/11/10 10:46:27;;;;;;;6.68;1.20;;;;;;;14.41;86.45;100054.88;5009473;28;20052;-43
2022/11/10 10:49:23;;;;;;;4.13;0.93;;;;;;;14.45;86.06;100071.63;5007692;28;20058;-44
2022/11/10 10:52:05;;;;;;;4.53;1.33;;;;;;;14.48;85.64;100073.66;5008736;28;20074;-42
2022/11/10 10:54:34;;;;;;;3.67;0.88;;;;;;;14.51;85.54;100070.88;5001600;28;20046;-43
2022/11/10 10:57:16;;;;;;;2.15;1.02;;;;;;;14.56;85.25;100083.66;5009066;28;20050;-44
2022/11/10 10:59:42;;;;;;;8.83;2.00;;;;;;;14.59;84.96;100082.84;5008975;28;20042;-44
2022/11/10 11:02:28;;;;;;;2.95;0.98;;;;;;;14.64;84.37;100085.25;5008459;28;20310;-45
2022/11/10 11:05:18;;;;;;;8.70;1.52;;;;;;;14.67;84.17;100078.16;5024288;28;20042;-46
2022/11/10 11:07:54;;;;;;;7.75;1.70;;;;;;;14.69;83.90;100087.72;5015265;28;20049;-49
2022/11/10 11:10:27;;;;;;;7.72;1.65;;;;;;;14.68;83.67;100090.88;5008274;28;20141;-46
2022/11/10 11:12:54;;;;;;;8.88;1.75;;;;;;;14.69;83.34;100092.47;4993840;28;20046;-45
2022/11/10 11:15:29;;;;;;;6.82;1.50;;;;;;;14.68;83.33;100100.03;5012619;28;20046;-46
2022/11/10 11:17:58;;;;;;;6.13;1.70;;;;;;;14.71;83.29;100085.31;5020310;28;20087;-45
2022/11/10 11:21:06;;;;;;;8.07;2.63;;;;;;;14.77;83.11;100086.56;5014589;28;20038;-47
2022/11/10 11:23:54;;;;;;;12.27;1.75;;;;;;;14.83;82.92;100075.81;4997323;28;20045;-44
2022/11/10 11:26:45;;;;;;;13.70;3.70;;;;;;;14.86;82.28;100091.75;5012539;28;20424;-49
2022/11/10 11:29:37;;;;;;;18.40;4.00;;;;;;;14.82;81.63;100058.31;5012497;28;20381;-45
2022/11/10 11:32:19;;;;;;;;;;;;;;;14.79;81.46;100075.03;5012927;28;20046;-47
2022/11/10 11:35:01;;;;;;;12.15;2.10;;;;;;;14.75;81.69;100063.03;5017583;28;19925;-45
2022/11/10 11:37:48;;;;;;;8.57;2.20;;;;;;;14.74;81.59;100070.63;5004586;28;20392;-48
2022/11/10 11:40:21;;;;;;;13.55;2.20;;;;;;;14.75;81.70;100055.47;5011732;28;20041;-50
2022/11/10 11:42:50;;;;;;;12.30;1.85;;;;;;;14.76;81.61;100076.59;5012454;28;20050;-45
2022/11/10 11:45:38;;;;;;;9.23;2.25;;;;;;;14.81;81.25;100056.72;5006067;28;20037;-45
2022/11/10 11:48:18;;;;;;;8.43;3.22;;;;;;;14.84;81.25;100063.50;4998501;28;20046;-44
2022/11/10 11:51:16;;;;;;;12.65;4.43;;;;;;;14.85;81.03;100085.38;5012614;28;20053;-45
2022/11/10 11:54:12;;;;;;;9.60;1.95;;;;;;;14.88;81.01;100083.84;4993357;28;20503;-47